Time;durP1;ratioP1;P1;durP2;ratioP2;P2;SDS_P1;SDS_P2;PMS_P1;PMS_P2;Temp;Humidity;BMP_temperature;BMP_pressure;BME280_temperature;BME280_humidity;BME280_pressure;Samples;Min_cycle;Max_cycle;Signal;HPM_P1;HPM_P2
2022/09/19 00:01:13;;;;;;;1.70;1.40;;;;;;;9.73;82.99;97485.27;104721;1273;61714;-24
2022/09/19 00:03:46;;;;;;;2.20;1.30;;;;;;;9.56;83.18;97481.64;104761;1273;75400;-24
2022/09/19 00:06:15;;;;;;;1.80;1.10;;;;;;;9.35;84.34;97483.73;104746;1273;76607;-24
2022/09/19 00:08:43;;;;;;;2.00;1.20;;;;;;;9.54;84.17;97489.66;104849;1272;74636;-24
2022/09/19 00:11:11;;;;;;;2.10;1.10;;;;;;;9.79;82.66;97487.77;104782;1271;62074;-25
2022/09/19 00:13:47;;;;;;;2.00;1.50;;;;;;;9.63;82.53;97478.14;104880;1273;63019;-25
2022/09/19 00:16:23;;;;;;;3.00;1.40;;;;;;;9.50;83.70;97489.67;105020;1272;76580;-24
2022/09/19 00:18:51;;;;;;;1.20;1.10;;;;;;;9.34;84.27;97486.95;104973;1273;76721;-24
2022/09/19 00:21:30;;;;;;;1.90;1.40;;;;;;;9.64;83.05;97488.09;104746;1273;74531;-23
2022/09/19 00:26:45;;;;;;;1.80;1.40;;;;;;;9.60;83.14;97502.20;104940;1271;61237;-25
2022/09/19 00:29:14;;;;;;;6.60;1.30;;;;;;;9.46;83.88;97504.48;104786;1271;75464;-25
2022/09/19 00:31:43;;;;;;;1.70;1.10;;;;;;;9.59;83.72;97501.41;104664;1272;76985;-25
2022/09/19 00:34:11;;;;;;;2.10;1.50;;;;;;;9.72;82.80;97504.41;104696;1273;75376;-24
2022/09/19 00:36:38;;;;;;;3.00;1.90;;;;;;;9.67;82.88;97510.02;104775;1273;63324;-23
2022/09/19 00:39:06;;;;;;;6.40;2.00;;;;;;;9.55;83.07;97508.20;105032;1273;63123;-23
2022/09/19 00:41:33;;;;;;;1.50;1.30;;;;;;;9.39;84.22;97515.58;104671;1271;75431;-23
2022/09/19 00:44:03;;;;;;;2.20;1.60;;;;;;;9.67;83.17;97516.02;104705;1271;74669;-23
2022/09/19 00:46:33;;;;;;;5.40;1.90;;;;;;;9.90;82.21;97522.92;104571;1273;75450;-23
2022/09/19 00:49:10;;;;;;;2.70;1.60;;;;;;;9.73;82.62;97520.43;104710;1273;62109;-22
2022/09/19 00:51:40;;;;;;;3.20;1.80;;;;;;;9.52;83.65;97522.77;105016;1272;61986;-23
2022/09/19 00:54:11;;;;;;;2.30;1.20;;;;;;;9.41;84.42;97519.65;104628;1273;76648;-23
2022/09/19 00:56:44;;;;;;;3.00;1.60;;;;;;;9.71;83.33;97516.13;104761;1270;76760;-23
2022/09/19 00:59:11;;;;;;;6.10;1.80;;;;;;;9.89;82.40;97522.77;104703;1270;74088;-23
2022/09/19 01:01:39;;;;;;;4.80;2.40;;;;;;;9.85;82.59;97523.20;104926;1270;61705;-23
2022/09/19 01:04:20;;;;;;;2.90;1.30;;;;;;;9.57;83.21;97512.58;104671;1270;62732;-23
2022/09/19 01:07:06;;;;;;;2.70;1.70;;;;;;;9.49;83.96;97518.52;104722;1270;76552;-23
2022/09/19 01:09:39;;;;;;;5.00;2.10;;;;;;;9.83;82.67;97517.92;104740;1270;76946;-23
2022/09/19 01:12:31;;;;;;;2.00;1.70;;;;;;;9.78;82.66;97520.29;104728;1270;75444;-23
2022/09/19 01:15:38;;;;;;;4.10;1.90;;;;;;;9.65;83.07;97518.69;104968;1270;62055;-23
2022/09/19 01:18:06;;;;;;;2.30;1.20;;;;;;;9.52;83.80;97527.42;104751;1270;62719;-23
2022/09/19 01:21:37;;;;;;;1.70;1.40;;;;;;;9.87;82.50;97530.29;104742;1270;74546;-23
2022/09/19 01:24:10;;;;;;;2.20;1.70;;;;;;;9.88;82.31;97536.89;104908;1273;75695;-23
2022/09/19 01:27:09;;;;;;;2.50;1.90;;;;;;;9.66;82.56;97529.86;104961;1270;74136;-23
2022/09/19 01:29:43;;;;;;;4.00;1.60;;;;;;;9.49;83.44;97529.08;104724;1273;63547;-23
2022/09/19 01:32:13;;;;;;;2.20;1.80;;;;;;;9.79;82.36;97532.86;104755;1270;63040;-23
2022/09/19 01:34:46;;;;;;;2.60;1.70;;;;;;;9.93;81.96;97537.89;104670;1270;76459;-23
2022/09/19 01:37:16;;;;;;;2.90;2.10;;;;;;;9.74;82.56;97535.90;104661;1270;77663;-23
2022/09/19 01:39:48;;;;;;;3.10;1.90;;;;;;;9.59;83.10;97540.05;104628;1270;75464;-23
2022/09/19 01:42:18;;;;;;;1.90;1.40;;;;;;;9.56;83.59;97536.40;104804;1270;64569;-23
2022/09/19 01:44:45;;;;;;;1.80;1.60;;;;;;;9.86;82.41;97539.18;104629;1270;62890;-23
2022/09/19 01:48:05;;;;;;;4.30;1.80;;;;;;;9.98;81.58;97545.49;104813;1270;75750;-23
2022/09/19 01:50:45;;;;;;;2.20;1.70;;;;;;;9.69;82.53;97545.44;104578;1277;75996;-23
2022/09/19 01:53:22;;;;;;;3.10;1.40;;;;;;;9.52;83.31;97552.02;104179;1280;74489;-24
2022/09/19 01:56:47;;;;;;;1.50;1.30;;;;;;;9.78;82.51;97549.57;104604;1270;62896;-23
2022/09/19 01:59:31;;;;;;;1.70;1.20;;;;;;;10.02;81.18;97554.45;104878;1270;62992;-23
2022/09/19 02:02:03;;;;;;;1.90;1.60;;;;;;;9.88;81.27;97554.30;105113;1270;76562;-23
2022/09/19 02:04:47;;;;;;;2.70;1.90;;;;;;;9.54;82.98;97559.23;104666;1273;75942;-23
2022/09/19 02:07:39;;;;;;;1.80;0.90;;;;;;;9.46;83.71;97564.17;104844;1270;74370;-23
2022/09/19 02:10:09;;;;;;;1.90;1.50;;;;;;;9.82;82.41;97567.89;104818;1270;61718;-23
2022/09/19 02:12:38;;;;;;;2.50;1.90;;;;;;;9.89;82.02;97571.73;105075;1270;62015;-23
2022/09/19 02:15:14;;;;;;;1.80;1.50;;;;;;;9.67;82.53;97565.56;104676;1271;75531;-23
2022/09/19 02:17:48;;;;;;;1.80;1.40;;;;;;;9.51;83.10;97571.56;104733;1271;76234;-23
2022/09/19 02:20:29;;;;;;;3.80;1.30;;;;;;;9.42;83.85;97578.50;104560;1274;75754;-23
2022/09/19 02:23:12;;;;;;;1.60;1.40;;;;;;;9.79;82.09;97574.55;104658;1270;63005;-23
2022/09/19 02:25:39;;;;;;;2.20;1.70;;;;;;;9.91;81.40;97580.45;104652;1270;61960;-23
2022/09/19 02:28:14;;;;;;;3.30;1.90;;;;;;;9.70;82.19;97585.60;104987;1271;76702;-23
2022/09/19 02:30:42;;;;;;;3.90;1.20;;;;;;;9.54;82.68;97579.92;104863;1271;75003;-23
2022/09/19 02:33:10;;;;;;;1.60;1.30;;;;;;;9.51;83.21;97579.10;104844;1271;74830;-23
2022/09/19 02:35:41;;;;;;;1.50;1.40;;;;;;;9.70;82.45;97578.95;104706;1270;61724;-23
2022/09/19 02:38:30;;;;;;;3.00;1.50;;;;;;;9.80;82.08;97589.77;105007;1270;63153;-23
2022/09/19 02:41:25;;;;;;;2.90;1.30;;;;;;;9.61;82.48;97591.02;105101;1270;76576;-23
2022/09/19 02:44:19;;;;;;;3.10;1.40;;;;;;;9.42;83.42;97587.66;105082;1271;76999;-23
2022/09/19 02:47:14;;;;;;;1.70;1.30;;;;;;;9.72;82.09;97589.21;105109;1271;74457;-23
2022/09/19 02:49:52;;;;;;;1.30;1.00;;;;;;;9.78;81.31;97597.91;105119;1270;62887;-23
2022/09/19 02:52:23;;;;;;;3.10;2.00;;;;;;;9.55;82.36;97598.10;104739;1273;61965;-23
2022/09/19 02:54:53;;;;;;;0.90;0.80;;;;;;;9.40;82.86;97602.88;104765;1271;76549;-23
2022/09/19 02:57:22;;;;;;;2.20;1.30;;;;;;;9.46;83.06;97604.43;104662;1271;75940;-23
2022/09/19 02:59:49;;;;;;;2.00;1.40;;;;;;;9.80;81.78;97613.52;104646;1271;75101;-23
2022/09/19 03:02:23;;;;;;;1.80;1.20;;;;;;;9.76;81.76;97616.20;104641;1271;61730;-23
2022/09/19 03:04:55;;;;;;;1.40;1.30;;;;;;;9.51;82.42;97617.23;104688;1271;62844;-23
2022/09/19 03:07:30;;;;;;;2.20;1.20;;;;;;;9.35;83.21;97617.45;104719;1271;76897;-23
2022/09/19 03:10:05;;;;;;;2.20;1.10;;;;;;;9.50;82.92;97616.48;104694;1271;76774;-23
2022/09/19 03:12:50;;;;;;;0.90;0.80;;;;;;;9.66;82.49;97623.59;105050;1271;75482;-23
2022/09/19 03:15:24;;;;;;;2.00;1.20;;;;;;;9.48;83.04;97631.38;105005;1271;62001;-23
2022/09/19 03:17:52;;;;;;;4.80;1.10;;;;;;;9.37;83.55;97630.98;105107;1271;62837;-23
2022/09/19 03:20:22;;;;;;;1.00;0.90;;;;;;;9.41;83.76;97632.21;105051;1271;75281;-23
2022/09/19 03:22:49;;;;;;;1.60;1.10;;;;;;;9.69;82.68;97634.39;104781;1271;77139;-24
2022/09/19 03:25:17;;;;;;;4.40;1.60;;;;;;;9.67;82.10;97639.70;104826;1272;74310;-23
2022/09/19 03:27:49;;;;;;;1.20;1.00;;;;;;;9.47;82.42;97640.67;104843;1271;61830;-23
2022/09/19 03:30:16;;;;;;;2.00;0.90;;;;;;;9.27;83.35;97640.00;104926;1271;61963;-25
2022/09/19 03:32:46;;;;;;;1.10;0.90;;;;;;;9.34;83.49;97646.80;104805;1271;75363;-23
2022/09/19 03:35:14;;;;;;;2.10;1.30;;;;;;;9.70;81.94;97645.90;104737;1271;74661;-23
2022/09/19 03:37:42;;;;;;;1.70;1.50;;;;;;;9.54;82.38;97645.15;104937;1271;74339;-23
2022/09/19 03:40:10;;;;;;;1.60;1.30;;;;;;;9.34;83.60;97656.64;104743;1271;61978;-23
2022/09/19 03:42:38;;;;;;;1.30;0.90;;;;;;;9.12;84.79;97654.27;104629;1271;61875;-23
2022/09/19 03:45:06;;;;;;;1.30;1.00;;;;;;;9.43;84.34;97666.94;104733;1272;76554;-23
2022/09/19 03:47:37;;;;;;;2.00;1.30;;;;;;;9.56;83.07;97665.14;104633;1271;75657;-23
2022/09/19 03:50:06;;;;;;;1.60;1.40;;;;;;;9.47;83.59;97676.58;104783;1271;74189;-23
2022/09/19 03:52:41;;;;;;;1.80;1.20;;;;;;;9.31;83.82;97679.16;104618;1272;61809;-24
2022/09/19 03:55:08;;;;;;;2.60;1.60;;;;;;;9.31;84.17;97683.80;104708;1273;61831;-24
2022/09/19 03:57:40;;;;;;;1.20;1.10;;;;;;;9.75;82.67;97689.40;104760;1273;75739;-24
2022/09/19 04:00:08;;;;;;;4.70;1.90;;;;;;;9.81;81.81;97689.28;104646;1273;76702;-24
2022/09/19 04:02:42;;;;;;;3.30;1.70;;;;;;;9.51;82.80;97695.73;104660;1274;74428;-24
2022/09/19 04:05:13;;;;;;;4.70;2.20;;;;;;;9.33;83.67;97693.43;104743;1273;61974;-24
2022/09/19 04:07:40;;;;;;;3.30;1.50;;;;;;;9.36;83.62;97696.86;104980;1271;63020;-25
2022/09/19 04:10:07;;;;;;;2.00;1.30;;;;;;;9.71;82.02;97698.05;105041;1273;76585;-25
2022/09/19 04:12:36;;;;;;;2.70;1.70;;;;;;;9.81;81.49;97703.04;104944;1271;75017;-26
2022/09/19 04:15:05;;;;;;;2.80;1.60;;;;;;;9.63;81.68;97703.70;104794;1271;75026;-25
2022/09/19 04:17:33;;;;;;;2.00;1.30;;;;;;;9.39;82.94;97708.52;104680;1273;63392;-25
2022/09/19 04:20:06;;;;;;;3.30;1.30;;;;;;;9.58;82.48;97713.59;104699;1273;61949;-25
2022/09/19 04:22:53;;;;;;;3.00;1.80;;;;;;;9.86;81.68;97720.92;104708;1272;75787;-25
2022/09/19 04:25:35;;;;;;;2.20;2.00;;;;;;;9.87;80.84;97722.14;104718;1273;77043;-25
2022/09/19 04:28:11;;;;;;;3.20;1.60;;;;;;;9.68;81.52;97728.18;104625;1271;74132;-25
2022/09/19 04:30:42;;;;;;;2.70;1.20;;;;;;;9.54;82.03;97730.65;104766;1272;61827;-25
2022/09/19 04:33:11;;;;;;;1.90;1.40;;;;;;;9.77;82.03;97730.59;104652;1274;62762;-25
2022/09/19 04:35:38;;;;;;;2.00;1.60;;;;;;;9.99;80.41;97731.54;104645;1274;76624;-25
2022/09/19 04:38:09;;;;;;;3.10;1.60;;;;;;;9.90;80.72;97732.78;104786;1271;76015;-24
2022/09/19 04:40:44;;;;;;;5.20;1.90;;;;;;;9.71;81.07;97734.80;104731;1273;75388;-24
2022/09/19 04:43:13;;;;;;;1.80;1.00;;;;;;;9.51;81.72;97735.35;104660;1273;61765;-24
2022/09/19 04:45:48;;;;;;;2.70;1.70;;;;;;;9.65;81.45;97735.89;104658;1273;61812;-24
2022/09/19 04:48:30;;;;;;;2.50;1.80;;;;;;;9.90;80.54;97746.14;104626;1273;75533;-25
2022/09/19 04:50:58;;;;;;;3.70;2.10;;;;;;;9.87;80.59;97747.42;104748;1273;76198;-24
2022/09/19 04:53:27;;;;;;;6.90;2.20;;;;;;;9.71;81.03;97751.98;104660;1273;73264;-24
2022/09/19 04:55:57;;;;;;;3.00;1.30;;;;;;;9.58;81.38;97755.99;104758;1272;61699;-24
2022/09/19 04:58:24;;;;;;;3.90;1.50;;;;;;;9.69;81.31;97758.45;104876;1273;63360;-24
2022/09/19 05:00:53;;;;;;;3.00;1.70;;;;;;;10.07;80.39;97756.45;104952;1272;75481;-25
2022/09/19 05:03:25;;;;;;;5.20;1.80;;;;;;;10.08;80.12;97760.85;104662;1273;76972;-24
2022/09/19 05:05:52;;;;;;;4.90;2.10;;;;;;;9.90;80.17;97765.92;104632;1274;75268;-24
2022/09/19 05:08:30;;;;;;;5.20;1.70;;;;;;;9.64;80.74;97768.22;104752;1271;61914;-24
2022/09/19 05:11:03;;;;;;;2.90;1.90;;;;;;;9.78;81.11;97769.81;104643;1273;62817;-24
2022/09/19 05:13:32;;;;;;;3.80;2.20;;;;;;;10.13;80.21;97779.40;104665;1274;76558;-25
2022/09/19 05:16:01;;;;;;;2.00;1.70;;;;;;;10.20;79.65;97782.92;104718;1273;76071;-26
2022/09/19 05:18:37;;;;;;;4.30;1.90;;;;;;;10.08;79.93;97782.86;104493;1272;75435;-27
2022/09/19 05:21:10;;;;;;;2.50;2.00;;;;;;;9.78;81.07;97793.25;104655;1276;62007;-26
2022/09/19 05:23:38;;;;;;;5.40;1.90;;;;;;;9.64;82.22;97801.70;104638;1273;63069;-27
2022/09/19 05:26:11;;;;;;;4.40;1.80;;;;;;;9.98;80.93;97799.49;104745;1273;75588;-25
2022/09/19 05:28:38;;;;;;;3.10;1.90;;;;;;;10.19;79.07;97795.64;104650;1272;76760;-25
2022/09/19 05:31:06;;;;;;;4.70;2.20;;;;;;;10.14;78.79;97806.23;104626;1273;75395;-25
2022/09/19 05:33:36;;;;;;;4.30;2.00;;;;;;;9.95;80.12;97807.23;104741;1274;61124;-25
2022/09/19 05:36:05;;;;;;;3.40;1.70;;;;;;;9.75;80.52;97807.25;105054;1273;62658;-25
2022/09/19 05:38:42;;;;;;;3.50;1.70;;;;;;;10.00;80.04;97816.80;104897;1273;76881;-25
2022/09/19 05:41:29;;;;;;;4.60;2.20;;;;;;;10.22;78.93;97811.31;104746;1272;75858;-24
2022/09/19 05:44:01;;;;;;;2.80;1.80;;;;;;;10.15;79.29;97822.44;104721;1273;74478;-25
2022/09/19 05:46:28;;;;;;;3.30;2.00;;;;;;;10.08;79.20;97822.52;104633;1273;63307;-25
2022/09/19 05:48:58;;;;;;;2.60;1.60;;;;;;;9.92;80.07;97826.17;104735;1271;61756;-25
2022/09/19 05:51:25;;;;;;;5.30;1.70;;;;;;;10.10;79.77;97825.77;104641;1271;76552;-25
2022/09/19 05:53:52;;;;;;;7.50;2.50;;;;;;;10.42;78.56;97826.14;104742;1271;75920;-25
2022/09/19 05:56:31;;;;;;;6.70;2.30;;;;;;;10.38;78.05;97827.27;104778;1271;74765;-24
2022/09/19 05:59:01;;;;;;;6.10;2.40;;;;;;;10.33;77.91;97833.13;104861;1271;61683;-25
2022/09/19 06:01:29;;;;;;;7.80;2.90;;;;;;;10.13;78.54;97842.00;104854;1271;62122;-25
2022/09/19 06:03:57;;;;;;;5.40;1.60;;;;;;;10.02;79.00;97839.98;104806;1271;75560;-25
2022/09/19 06:06:26;;;;;;;5.90;1.80;;;;;;;10.38;77.37;97840.27;104829;1271;77378;-24
2022/09/19 06:08:58;;;;;;;5.50;2.50;;;;;;;10.66;76.04;97839.93;104844;1271;74317;-24
2022/09/19 06:11:30;;;;;;;5.10;2.00;;;;;;;10.66;75.71;97839.89;104798;1272;62044;-24
2022/09/19 06:14:15;;;;;;;3.30;2.20;;;;;;;10.44;76.04;97846.77;105070;1271;63157;-25
2022/09/19 06:16:44;;;;;;;3.50;1.60;;;;;;;10.36;77.12;97851.06;105152;1271;75783;-25
2022/09/19 06:19:23;;;;;;;4.80;1.80;;;;;;;10.52;76.65;97858.31;105113;1271;77002;-25
2022/09/19 06:22:13;;;;;;;4.30;1.70;;;;;;;10.85;74.40;97857.63;105073;1271;75417;-25
2022/09/19 06:24:41;;;;;;;6.60;2.20;;;;;;;10.74;74.17;97858.45;105150;1271;61100;-25
2022/09/19 06:27:11;;;;;;;4.40;2.50;;;;;;;10.68;74.55;97874.43;105150;1271;61760;-25
2022/09/19 06:29:42;;;;;;;5.50;1.90;;;;;;;10.58;75.96;97876.80;105162;1271;74168;-25
2022/09/19 06:32:21;;;;;;;4.40;2.40;;;;;;;10.39;77.60;97887.39;105140;1271;76831;-23
2022/09/19 06:35:01;;;;;;;5.60;2.00;;;;;;;10.51;77.26;97884.65;105079;1271;74672;-24
2022/09/19 06:37:31;;;;;;;6.40;2.00;;;;;;;10.94;74.54;97887.16;104858;1271;61831;-25
2022/09/19 06:39:59;;;;;;;5.50;2.10;;;;;;;10.94;73.31;97887.69;104729;1274;63093;-24
2022/09/19 06:42:44;;;;;;;3.90;2.20;;;;;;;10.66;73.89;97877.90;104924;1271;76549;-24
2022/09/19 06:45:37;;;;;;;3.60;2.00;;;;;;;10.63;74.53;97891.11;104758;1272;75998;-24
2022/09/19 06:48:39;;;;;;;6.20;2.50;;;;;;;10.53;75.06;97889.95;104586;1277;75584;-24
2022/09/19 06:51:29;;;;;;;4.50;1.70;;;;;;;10.50;73.96;97886.60;104959;1271;63708;-24
2022/09/19 06:53:56;;;;;;;5.30;2.50;;;;;;;10.98;72.72;97899.02;104782;1272;62962;-23
2022/09/19 06:56:24;;;;;;;3.10;1.60;;;;;;;11.01;72.81;97894.61;104706;1271;76843;-24
2022/09/19 06:58:51;;;;;;;4.10;1.90;;;;;;;11.14;72.71;97902.45;104923;1271;75665;-24
2022/09/19 07:01:18;;;;;;;5.60;2.10;;;;;;;11.16;73.78;97905.23;104697;1271;74332;-23
2022/09/19 07:03:47;;;;;;;4.50;2.40;;;;;;;11.21;72.71;97899.19;104871;1271;62789;-25
2022/09/19 07:06:19;;;;;;;4.50;2.40;;;;;;;11.15;72.48;97911.73;104937;1271;61960;-25
2022/09/19 07:09:12;;;;;;;3.00;1.50;;;;;;;11.09;72.45;97914.41;104754;1271;74409;-23
2022/09/19 07:11:39;;;;;;;5.80;2.50;;;;;;;11.03;72.17;97908.98;103388;1271;2022254;-24
2022/09/19 07:14:06;;;;;;;3.90;1.30;;;;;;;11.45;70.28;97908.21;104678;1272;74325;-24
2022/09/19 07:16:34;;;;;;;6.80;1.70;;;;;;;11.73;69.46;97915.55;104745;1271;62030;-23
2022/09/19 07:19:03;;;;;;;2.70;1.40;;;;;;;11.80;69.08;97918.89;104884;1271;63120;-23
2022/09/19 07:21:37;;;;;;;4.80;1.70;;;;;;;11.77;70.00;97917.30;104732;1271;76346;-23
2022/09/19 07:24:09;;;;;;;5.50;1.70;;;;;;;11.70;70.70;97920.24;104804;1274;76852;-23
2022/09/19 07:27:00;;;;;;;2.90;1.50;;;;;;;11.71;71.11;97920.47;105133;1271;75256;-24
2022/09/19 07:29:28;;;;;;;3.00;1.60;;;;;;;11.79;70.67;97924.82;104880;1271;61992;-23
2022/09/19 07:31:56;;;;;;;3.20;1.80;;;;;;;11.95;70.83;97928.92;104637;1271;61695;-23
2022/09/19 07:34:23;;;;;;;3.20;1.40;;;;;;;12.02;69.70;97924.95;104916;1271;75503;-23
2022/09/19 07:36:52;;;;;;;5.70;1.80;;;;;;;11.86;67.51;97925.91;104857;1271;77094;-24
2022/09/19 07:39:19;;;;;;;5.60;1.40;;;;;;;11.75;68.51;97924.59;104898;1271;74264;-23
2022/09/19 07:42:07;;;;;;;3.60;1.60;;;;;;;11.60;69.49;97928.53;104860;1271;63074;-23
2022/09/19 07:44:51;;;;;;;3.50;1.30;;;;;;;11.71;69.69;97935.20;104836;1271;62784;-22
2022/09/19 07:47:50;;;;;;;2.80;1.30;;;;;;;11.76;69.12;97933.71;104726;1271;77038;-24
2022/09/19 07:50:37;;;;;;;5.50;1.40;;;;;;;11.87;67.82;97941.57;104864;1271;76994;-25
2022/09/19 07:53:21;;;;;;;11.20;2.30;;;;;;;11.87;67.57;97937.40;104869;1271;74199;-24
2022/09/19 07:55:51;;;;;;;1.30;0.80;;;;;;;11.99;66.69;97938.98;104787;1271;63029;-25
2022/09/19 07:58:20;;;;;;;5.90;1.40;;;;;;;12.03;66.23;97942.71;105103;1271;62004;-23
2022/09/19 08:00:52;;;;;;;2.30;1.00;;;;;;;12.18;66.37;97952.84;105063;1272;75543;-24
2022/09/19 08:03:39;;;;;;;5.00;1.40;;;;;;;12.28;65.51;97952.52;104760;1271;75949;-25
2022/09/19 08:06:07;;;;;;;2.60;1.10;;;;;;;12.34;64.82;97947.17;104725;1272;74226;-25
2022/09/19 08:08:34;;;;;;;2.20;1.00;;;;;;;12.11;65.27;97949.96;104879;1271;61740;-25
2022/09/19 08:11:05;;;;;;;1.90;0.80;;;;;;;12.06;64.95;97954.30;105037;1271;63045;-25
2022/09/19 08:13:33;;;;;;;2.80;1.20;;;;;;;12.21;64.74;97953.68;105113;1271;76277;-25
2022/09/19 08:16:01;;;;;;;3.70;1.10;;;;;;;12.38;65.01;97949.02;104943;1271;75977;-25
2022/09/19 08:18:31;;;;;;;6.50;1.40;;;;;;;12.48;64.78;97953.65;104778;1274;74417;-24
2022/09/19 08:20:58;;;;;;;5.30;1.30;;;;;;;12.65;63.99;97954.62;105024;1274;62841;-24
2022/09/19 08:23:26;;;;;;;4.20;1.20;;;;;;;12.80;62.31;97956.56;105110;1271;62753;-24
2022/09/19 08:25:55;;;;;;;2.00;1.00;;;;;;;12.81;60.65;97938.14;104998;1272;75687;-24
2022/09/19 08:28:22;;;;;;;4.30;1.20;;;;;;;12.65;60.13;97947.02;104867;1271;75733;-24
2022/09/19 08:30:52;;;;;;;2.10;0.90;;;;;;;12.54;60.41;97953.73;104867;1271;74421;-24
2022/09/19 08:33:19;;;;;;;2.00;0.70;;;;;;;12.45;61.59;97954.86;104891;1271;62977;-25
2022/09/19 08:35:46;;;;;;;2.70;1.30;;;;;;;12.36;61.92;97958.04;104772;1274;62983;-24
2022/09/19 08:38:25;;;;;;;2.10;0.90;;;;;;;12.42;61.46;97959.05;104836;1271;75766;-24
2022/09/19 08:40:59;;;;;;;2.20;1.30;;;;;;;12.64;60.83;97954.39;104797;1271;76994;-24
2022/09/19 08:43:34;;;;;;;;;;;;;;;12.88;60.19;97958.77;104924;1271;75409;-24
2022/09/19 08:46:15;;;;;;;2.40;1.10;;;;;;;13.20;58.48;97959.59;104681;1274;62002;-24
2022/09/19 08:49:12;;;;;;;3.50;0.90;;;;;;;13.40;58.81;97959.42;104802;1272;61899;-24
2022/09/19 08:51:58;;;;;;;2.80;1.00;;;;;;;13.64;56.68;97954.73;105006;1271;75668;-24
2022/09/19 08:54:46;;;;;;;2.00;0.50;;;;;;;13.79;56.23;97967.52;104836;1274;75933;-24
2022/09/19 08:57:27;;;;;;;4.50;0.70;;;;;;;14.13;55.68;97967.25;104791;1271;74330;-24
2022/09/19 09:00:07;;;;;;;1.40;0.80;;;;;;;14.33;55.05;97977.81;104810;1271;61834;-24
2022/09/19 09:03:06;;;;;;;4.00;0.70;;;;;;;14.43;53.67;97971.87;104755;1271;61998;-24
2022/09/19 09:05:46;;;;;;;1.60;0.60;;;;;;;14.16;53.15;97969.88;104717;1272;75600;-24
2022/09/19 09:08:37;;;;;;;4.00;0.80;;;;;;;14.02;53.98;97974.56;104901;1271;76930;-24
2022/09/19 09:11:13;;;;;;;2.00;0.80;;;;;;;14.08;52.49;97971.14;105140;1271;75234;-25
2022/09/19 09:14:01;;;;;;;1.10;0.50;;;;;;;13.72;53.32;97978.31;104974;1272;63425;-24
2022/09/19 09:17:01;;;;;;;2.90;1.10;;;;;;;13.55;55.58;97985.04;104785;1272;63056;-24
2022/09/19 09:19:54;;;;;;;3.80;1.00;;;;;;;14.20;55.39;97982.42;104802;1272;74483;-25
2022/09/19 09:22:31;;;;;;;1.60;0.70;;;;;;;14.53;52.53;97980.70;105055;1271;76446;-24
2022/09/19 09:25:29;;;;;;;2.70;0.70;;;;;;;14.57;52.29;97987.48;105115;1271;74425;-25
2022/09/19 09:28:06;;;;;;;2.40;0.70;;;;;;;14.31;53.26;97982.50;104684;1274;62099;-25
2022/09/19 09:31:10;;;;;;;3.60;1.10;;;;;;;14.43;53.07;97987.42;104399;1274;63327;-25
2022/09/19 09:33:41;;;;;;;2.30;0.70;;;;;;;14.11;53.46;97995.79;104769;1271;76582;-25
2022/09/19 09:36:15;;;;;;;3.40;0.80;;;;;;;13.95;53.94;97996.91;104730;1274;76986;-25
2022/09/19 09:38:49;;;;;;;1.40;0.70;;;;;;;14.32;53.22;97991.77;104726;1272;75359;-24
2022/09/19 09:41:57;;;;;;;2.20;0.70;;;;;;;14.54;50.47;97991.43;104714;1271;62150;-25
2022/09/19 09:44:27;;;;;;;1.20;0.50;;;;;;;14.80;49.75;98003.22;104510;1273;62047;-25
2022/09/19 09:47:09;;;;;;;2.90;0.60;;;;;;;14.98;51.51;98009.67;105106;1271;76602;-25
2022/09/19 09:49:37;;;;;;;1.10;0.50;;;;;;;15.25;51.32;98011.61;105040;1271;77512;-24
2022/09/19 09:52:18;;;;;;;1.30;0.50;;;;;;;15.56;49.31;98007.83;104663;1274;74343;-24
2022/09/19 09:58:18;;;;;;;1.70;0.50;;;;;;;15.46;49.87;98021.30;104909;1271;62002;-25
2022/09/19 10:03:42;;;;;;;1.10;0.40;;;;;;;15.23;48.54;98012.77;104614;1272;77041;-25
2022/09/19 10:07:00;;;;;;;5.20;1.00;;;;;;;14.79;49.75;98028.92;104748;1271;75253;-23
2022/09/19 10:09:31;;;;;;;0.50;0.40;;;;;;;14.18;50.20;98020.09;104360;1274;61851;-24
2022/09/19 10:11:59;;;;;;;1.20;0.60;;;;;;;14.09;52.03;98035.22;104835;1272;61972;-25
2022/09/19 10:14:47;;;;;;;1.40;0.70;;;;;;;13.88;51.88;98032.86;104636;1272;75484;-25
2022/09/19 10:17:39;;;;;;;1.40;0.60;;;;;;;13.65;53.32;98050.52;104768;1272;75937;-25
2022/09/19 10:20:15;;;;;;;2.90;0.70;;;;;;;13.52;53.39;98046.91;104749;1273;73222;-25
2022/09/19 10:22:42;;;;;;;2.00;0.50;;;;;;;13.33;54.09;98055.91;104747;1274;62992;-25
2022/09/19 10:25:12;;;;;;;2.20;0.80;;;;;;;13.24;54.91;98062.11;104773;1271;61090;-24
2022/09/19 10:27:42;;;;;;;2.80;0.60;;;;;;;13.19;54.99;98064.58;104663;1274;76638;-25
2022/09/19 10:30:41;;;;;;;2.40;0.60;;;;;;;13.20;54.84;98055.73;104483;1271;77076;-25
2022/09/19 10:33:41;;;;;;;1.50;0.80;;;;;;;13.52;54.40;98063.08;104952;1271;74264;-25
2022/09/19 10:36:22;;;;;;;1.30;0.60;;;;;;;14.24;53.32;98068.11;105090;1271;62775;-25
2022/09/19 10:38:58;;;;;;;1.20;0.50;;;;;;;14.93;51.29;98065.80;104890;1271;61684;-25
2022/09/19 10:41:30;;;;;;;2.80;0.80;;;;;;;15.29;49.87;98072.02;105056;1272;75733;-25
2022/09/19 10:44:00;;;;;;;3.10;0.50;;;;;;;15.42;49.57;98069.67;104967;1273;76012;-25
2022/09/19 10:46:35;;;;;;;1.00;0.50;;;;;;;15.52;48.83;98067.71;104696;1272;75310;-25
2022/09/19 10:49:36;;;;;;;2.70;0.60;;;;;;;15.82;48.50;98069.16;104802;1271;61124;-25
2022/09/19 10:52:04;;;;;;;1.60;0.60;;;;;;;16.02;48.70;98064.92;104818;1271;62018;-25
2022/09/19 10:54:33;;;;;;;1.70;0.40;;;;;;;16.31;48.57;98072.67;104773;1271;76818;-25
2022/09/19 10:57:01;;;;;;;1.70;0.60;;;;;;;16.50;48.21;98069.44;104761;1271;77133;-26
2022/09/19 10:59:37;;;;;;;1.80;0.50;;;;;;;16.51;48.82;98077.77;104761;1274;75452;-25
2022/09/19 11:02:25;;;;;;;2.50;0.60;;;;;;;16.80;48.04;98076.90;104691;1274;62953;-25
2022/09/19 11:05:03;;;;;;;2.60;0.70;;;;;;;16.78;46.39;98072.85;104822;1271;62187;-25
2022/09/19 11:07:47;;;;;;;1.00;0.60;;;;;;;15.96;47.89;98080.48;104669;1271;75574;-25
2022/09/19 11:10:39;;;;;;;3.40;3.10;;;;;;;15.59;49.30;98095.95;104874;1274;77084;-25
2022/09/19 11:13:22;;;;;;;2.30;0.40;;;;;;;15.32;49.30;98085.31;105079;1272;75700;-25
2022/09/19 11:16:39;;;;;;;3.00;0.60;;;;;;;15.56;50.21;98089.61;105071;1271;62029;-25
2022/09/19 11:19:26;;;;;;;1.80;0.60;;;;;;;15.67;48.81;98081.19;105075;1271;61920;-27
2022/09/19 11:22:02;;;;;;;0.90;0.40;;;;;;;16.15;49.67;98081.02;104885;1274;75642;-25
2022/09/19 11:24:42;;;;;;;3.80;0.50;;;;;;;16.61;47.69;98081.80;104755;1272;76055;-25
2022/09/19 11:27:32;;;;;;;2.80;0.70;;;;;;;16.35;46.07;98082.26;104781;1271;75454;-24
2022/09/19 11:30:18;;;;;;;2.30;0.70;;;;;;;15.87;47.44;98087.74;104855;1271;62086;-24
2022/09/19 11:32:59;;;;;;;1.40;0.40;;;;;;;15.98;47.79;98096.64;104791;1274;61805;-24
2022/09/19 11:35:50;;;;;;;1.20;0.70;;;;;;;16.03;47.19;98084.02;104775;1272;76526;-25
2022/09/19 11:38:28;;;;;;;1.20;0.60;;;;;;;16.01;47.88;98089.84;104715;1271;77007;-24
2022/09/19 11:41:43;;;;;;;2.00;0.70;;;;;;;16.14;48.03;98091.33;104715;1271;74262;-24
2022/09/19 11:44:22;;;;;;;1.30;0.70;;;;;;;16.48;47.09;98081.46;104751;1271;62165;-25
2022/09/19 11:47:25;;;;;;;1.30;0.60;;;;;;;16.37;46.89;98085.75;104762;1272;63012;-25
2022/09/19 11:50:20;;;;;;;1.20;0.70;;;;;;;15.82;47.06;98087.46;104909;1271;76704;-25
2022/09/19 11:53:12;;;;;;;1.70;0.80;;;;;;;15.38;48.57;98100.05;104871;1271;76013;-25
2022/09/19 11:56:20;;;;;;;1.40;0.70;;;;;;;15.25;50.28;98100.75;104661;1272;75487;-25
2022/09/19 11:59:28;;;;;;;1.90;0.80;;;;;;;15.54;50.31;98100.44;104821;1271;61996;-25
2022/09/19 12:02:18;;;;;;;1.80;0.60;;;;;;;15.29;49.31;98105.52;105020;1273;62244;-25
2022/09/19 12:05:13;;;;;;;1.80;0.70;;;;;;;14.82;50.40;98100.98;104998;1273;74495;-25
2022/09/19 12:08:19;;;;;;;1.00;0.50;;;;;;;14.66;52.08;98108.48;104710;1274;76732;-25
2022/09/19 12:10:59;;;;;;;0.60;0.60;;;;;;;15.07;51.61;98108.90;104750;1273;74295;-25
2022/09/19 12:13:53;;;;;;;1.40;0.70;;;;;;;15.58;50.81;98107.47;104759;1273;62019;-25
2022/09/19 12:16:33;;;;;;;2.00;1.00;;;;;;;15.76;49.27;98111.46;104738;1271;61886;-25
2022/09/19 12:19:12;;;;;;;1.40;0.70;;;;;;;15.47;49.64;98110.50;104646;1271;75403;-25
2022/09/19 12:21:42;;;;;;;0.80;0.60;;;;;;;15.09;49.64;98111.70;104616;1272;77125;-25
2022/09/19 12:27:12;;;;;;;2.80;0.60;;;;;;;14.34;50.85;98108.70;104870;1271;61981;-25